Flight Track Log - Related Links

Times and Time Zones

All times are in EDT time to prevent confusion due to time zone crossing. See the DAL268 flight status page for this flight to view local times or setup timezone preferences in your user account.

Time Position Orientation Groundspeed Altitude Reporting Facility
EDT Latitude Longitude Course Direction KTS MPH feet Rate Location/Type
Mon 12:40:37 AM 40.6400 -73.7750 261° West 2 2  Level FlightAware ADS-B
Mon 12:40:58 AM 40.6410 -73.7750 360° North 2 2 32 Level FlightAware ADS-B
Mon 12:42:10 AM 40.6410 -73.7750 360° North 10 12 33 Level FlightAware ADS-B
Mon 12:44:00 AM 40.5324 -73.4640 114° Southeast  Level FlightAware Approximate
Mon 12:44:30 AM 40.6400 -73.7750 114° Southeast 10 12  Level FlightAware ADS-B
Mon 12:46:51 AM 40.6400 -73.7760 114° Southeast 2 2 41 Level FlightAware ADS-B
Mon 12:47:00 AM 40.4943 -73.3494 114° Southeast  Level FlightAware Approximate
Mon 12:47:36 AM 40.6410 -73.7760 360° North 2 2  Level FlightAware ADS-B
Mon 12:49:24 AM 40.6400 -73.7760 180° South 12 14 51 Level FlightAware ADS-B
Mon 12:49:54 AM 40.6400 -73.7750 90° East 14 16 61 Level FlightAware ADS-B
Mon 12:50:27 AM 40.6410 -73.7750 360° North 20 23 64 Level FlightAware ADS-B
Mon 12:50:54 AM 40.6420 -73.7740 37° Northeast 26 30 68 Level FlightAware ADS-B
Mon 12:51:23 AM 40.6430 -73.7730 37° Northeast 30 35 72 Level FlightAware ADS-B
Mon 12:51:33 AM 40.6440 -73.7730 360° North 31 36 76 Level FlightAware ADS-B
Mon 12:52:19 AM 40.6460 -73.7710 37° Northeast 30 35 78 Level FlightAware ADS-B
Mon 12:52:48 AM 40.6480 -73.7700 21° North 26 30 86 Level FlightAware ADS-B
Mon 12:53:11 AM 40.6490 -73.7700 360° North 28 32 93 Level FlightAware ADS-B
Mon 12:53:27 AM 40.6500 -73.7690 37° Northeast 29 33 98 Level FlightAware ADS-B
Mon 12:53:55 AM 40.6510 -73.7690 360° North 29 33 103 Level FlightAware ADS-B
Mon 12:54:52 AM 40.6540 -73.7680 14° North 29 33 112 Level FlightAware ADS-B
Mon 12:55:20 AM 40.6550 -73.7670 37° Northeast 22 25 136 Level FlightAware ADS-B
Mon 12:55:45 AM 40.6560 -73.7660 37° Northeast 19 22 152 Level FlightAware ADS-B
Mon 12:56:26 AM 40.6560 -73.7650 90° East 15 17 170 Level FlightAware ADS-B
Mon 12:56:50 AM 40.6550 -73.7650 180° South 11 13 211 Level FlightAware ADS-B
Mon 12:57:49 AM 40.6560 -73.7650 360° North 2 2 245 Level FlightAware ADS-B
Mon 12:58:29 AM 40.6530 -73.7680 217° Southwest 74 85 409 Level FlightAware ADS-B
Mon 12:59:17 AM 40.6250 -73.7910 212° Southwest 176 203 600 1,184 Climbing FlightAware ADS-B
Mon 12:59:45 AM 40.6040 -73.8060 208° Southwest 186 214 1,500 1,800 Climbing FlightAware ADS-B
Mon 12:59:57 AM 40.5950 -73.8100 199° South 192 221 1,800 1,161 Climbing FlightAware ADS-B
Mon 01:00:47 AM 40.5530 -73.7740 147° Southeast 261 300 2,700 1,054 Climbing FlightAware ADS-B
Mon 01:01:11 AM 40.5450 -73.7340 105° East 293 337 3,100 1,474 Climbing FlightAware ADS-B
Mon 01:01:44 AM 40.5540 -73.6750 79° East 313 360 4,100 2,045 Climbing FlightAware ADS-B
Mon 01:01:55 AM 40.5590 -73.6537 73° East 315 362 4,600 2,625 Climbing FlightAware ADS-B
Mon 01:02:16 AM 40.5673 -73.6160 74° East 314 361 5,500 2,640 Climbing FlightAware ADS-B
Mon 01:02:20 AM 40.5685 -73.6085 78° East 310 357 5,700 2,000 Climbing FlightAware ADS-B
Mon 01:02:25 AM 40.5694 -73.5994 83° East 310 357 5,800 1,846 Climbing FlightAware ADS-B
Mon 01:02:33 AM 40.5698 -73.5839 88° East 309 356 6,100 2,500 Climbing FlightAware ADS-B
Mon 01:02:37 AM 40.5694 -73.5764 94° East 308 354 6,300 2,000 Climbing FlightAware ADS-B
Mon 01:02:42 AM 40.5685 -73.5671 97° East 308 354 6,400 2,000 Climbing FlightAware ADS-B
Mon 01:02:46 AM 40.5675 -73.5599 100° East 308 354 6,600 2,000 Climbing FlightAware ADS-B
Mon 01:02:51 AM 40.5659 -73.5515 104° East 307 353 6,700 1,800 Climbing FlightAware ADS-B
Mon 01:02:56 AM 40.5632 -73.5413 109° East 307 353 6,900 2,286 Climbing FlightAware ADS-B
Mon 01:03:12 AM 40.5556 -73.5142 110° East 308 354 7,500 2,250 Climbing FlightAware ADS-B
Mon 01:03:28 AM 40.5478 -73.4861 110° East 310 357 8,100 2,323 Climbing FlightAware ADS-B
Mon 01:03:43 AM 40.5403 -73.4590 110° East 312 359 8,700 2,063 Climbing FlightAware ADS-B
Mon 01:04:00 AM 40.5317 -73.4291 111° Southeast 316 364 9,200 2,063 Climbing FlightAware ADS-B
Mon 01:04:15 AM 40.5235 -73.4007 111° Southeast 317 365 9,800 1,733 Climbing FlightAware ADS-B
Mon 01:04:45 AM 40.5073 -73.3455 111° Southeast 333 383 10,500 1,180 Climbing FlightAware ADS-B
Mon 01:05:16 AM 40.4892 -73.2856 112° Southeast 358 412 11,000 968 Climbing FlightAware ADS-B
Mon 01:05:47 AM 40.4697 -73.2206 112° Southeast 382 440 11,500 1,065 Climbing FlightAware ADS-B
Mon 01:06:18 AM 40.4492 -73.1525 112° Southeast 404 465 12,100 1,452 Climbing FlightAware ADS-B
Mon 01:06:49 AM 40.4370 -73.0760 102° East 426 490 13,000 1,826 Climbing FlightAware ADS-B
Mon 01:07:04 AM 40.4432 -73.0378 78° East 428 493 13,500 1,895 Climbing FlightAware ADS-B
Mon 01:07:08 AM 40.4462 -73.0277 69° East 438 504 13,600 2,308 Climbing FlightAware ADS-B
Mon 01:07:17 AM 40.4557 -73.0052 61° Northeast 442 509 14,000 2,250 Climbing FlightAware ADS-B
Mon 01:07:48 AM 40.4961 -72.9438 49° Northeast 447 514 15,100 2,164 Climbing FlightAware ADS-B
Mon 01:08:18 AM 40.5390 -72.8830 47° Northeast 452 520 16,200 2,000 Climbing FlightAware ADS-B
Mon 01:08:48 AM 40.5832 -72.8207 47° Northeast 460 529 17,100 1,869 Climbing FlightAware ADS-B
Mon 01:09:19 AM 40.6275 -72.7576 47° Northeast 468 539 18,100 1,900 Climbing FlightAware ADS-B
Mon 01:09:48 AM 40.6700 -72.6958 48° Northeast 473 544 19,000 1,729 Climbing FlightAware ADS-B
Mon 01:10:18 AM 40.7149 -72.6312 47° Northeast 480 552 19,800 1,475 Climbing FlightAware ADS-B
Mon 01:10:49 AM 40.7615 -72.5638 48° Northeast 489 563 20,500 1,452 Climbing FlightAware ADS-B
Mon 01:11:20 AM 40.8088 -72.4957 47° Northeast 496 571 21,300 1,377 Climbing FlightAware ADS-B
Mon 01:11:50 AM 40.8568 -72.4266 47° Northeast 505 581 21,900 1,180 Climbing FlightAware ADS-B
Mon 01:12:21 AM 40.9050 -72.3566 48° Northeast 513 590 22,500 1,279 Climbing FlightAware ADS-B
Mon 01:12:51 AM 40.9541 -72.2854 48° Northeast 520 598 23,200 1,400 Climbing FlightAware ADS-B
Mon 01:13:21 AM 41.0031 -72.2137 48° Northeast 524 603 23,900 1,377 Climbing FlightAware ADS-B
Mon 01:13:52 AM 41.0528 -72.1407 48° Northeast 530 610 24,600 1,273 Climbing FlightAware ADS-B
Mon 01:14:27 AM 41.1100 -72.0560 48° Northeast 535 616 25,300 632 Climbing FlightAware ADS-B
Mon 01:15:08 AM 41.1680 -71.9710 48° Northeast 535 616 25,400 78 Climbing FlightAware ADS-B
Mon 01:15:44 AM 41.2190 -71.8960 48° Northeast 535 616 25,400 1,227 Level FlightAware ADS-B
Mon 01:18:04 AM 41.4710 -71.5240 48° Northeast 556 640 29,000 1,137 Climbing FlightAware ADS-B
Mon 01:18:54 AM 41.5610 -71.3890 48° Northeast 543 625 29,000  Level FlightAware ADS-B
Mon 01:19:34 AM 41.6290 -71.2860 49° Northeast 541 623 29,000  Level FlightAware ADS-B
Mon 01:20:14 AM 41.6980 -71.1820 48° Northeast 543 625 29,000  Level FlightAware ADS-B
Mon 01:20:54 AM 41.7610 -71.0860 49° Northeast 543 625 29,000  Level FlightAware ADS-B
Mon 01:21:40 AM 41.8370 -70.9690 49° Northeast 538 619 29,000 343 Level FlightAware ADS-B
Mon 01:23:14 AM 41.9940 -70.7290 49° Northeast 542 624 29,800 691 Climbing FlightAware ADS-B
Mon 01:23:59 AM 42.0720 -70.6090 49° Northeast 544 626 30,600 886 Climbing FlightAware ADS-B
Mon 01:24:42 AM 42.1340 -70.5110 50° Northeast 547 629 31,100 940 Climbing FlightAware ADS-B
Mon 01:25:22 AM 42.2070 -70.3960 49° Northeast 549 632 31,900 1,037 Climbing FlightAware ADS-B
Mon 01:26:03 AM 42.2760 -70.2870 49° Northeast 550 633 32,500 759 Climbing FlightAware ADS-B
Mon 01:26:49 AM 42.3520 -70.1660 50° Northeast 553 636 33,000 333 Climbing FlightAware ADS-B
Mon 01:27:33 AM 42.4260 -70.0480 50° Northeast 552 635 33,000  Level FlightAware ADS-B
Mon 01:28:13 AM 42.4920 -69.9410 50° Northeast 555 639 33,000  Level FlightAware ADS-B
Mon 01:28:55 AM 42.5590 -69.8330 50° Northeast 555 639 33,000  Level FlightAware ADS-B
Mon 01:29:50 AM 42.6530 -69.6810 50° Northeast 556 640 33,000  Level FlightAware ADS-B
Mon 01:30:35 AM 42.7250 -69.5630 50° Northeast 558 642 33,000  Level FlightAware ADS-B
Mon 01:31:20 AM 42.8010 -69.4390 50° Northeast 559 643 33,000  Level FlightAware ADS-B
Mon 01:32:06 AM 42.8770 -69.3150 50° Northeast 560 644 33,000  Level FlightAware ADS-B
Mon 01:32:46 AM 42.9450 -69.2030 50° Northeast 561 646 33,000  Level FlightAware ADS-B
Mon 01:33:36 AM 43.0270 -69.0670 50° Northeast 562 647 33,000  Level FlightAware ADS-B
Mon 01:34:25 AM 43.1060 -68.9350 51° Northeast 561 646 33,000  Level FlightAware ADS-B
Mon 01:35:06 AM 43.1690 -68.8310 50° Northeast 560 644 33,000  Level FlightAware ADS-B
Mon 01:35:44 AM 43.2220 -68.7430 50° Northeast 560 644 33,000  Level FlightAware ADS-B
Mon 01:36:30 AM 43.2870 -68.6360 50° Northeast 560 644 33,000  Level FlightAware ADS-B
Mon 01:37:06 AM 43.3380 -68.5530 50° Northeast 560 644 33,000  Level FlightAware ADS-B
Mon 01:37:55 AM 43.4080 -68.4390 50° Northeast 560 644 33,000  Level FlightAware ADS-B
Mon 01:38:43 AM 43.4933 -68.2667 50° Northeast 551 634 33,000  Level Boston Center
Mon 01:44:43 AM 44.1070 -67.2170 50° Northeast 562 647 33,000  Level FlightAware ADS-B
Mon 01:45:23 AM 44.1690 -67.1060 52° Northeast 564 649 33,000  Level FlightAware ADS-B
Mon 01:46:00 AM 44.2330 -66.9930 52° Northeast 565 650 33,000  Level FlightAware ADS-B
Mon 01:46:40 AM 44.2940 -66.8820 52° Northeast 565 650 33,000  Level FlightAware ADS-B
Mon 01:47:26 AM 44.3700 -66.7450 52° Northeast 566 651 33,000  Level FlightAware ADS-B
Mon 01:48:12 AM 44.4420 -66.6160 52° Northeast 568 654 33,000  Level FlightAware ADS-B
Mon 01:48:47 AM 44.5000 -66.5120 52° Northeast 568 654 33,000  Level FlightAware ADS-B
Mon 01:49:37 AM 44.5800 -66.3670 52° Northeast 569 655 33,000  Level FlightAware ADS-B
Mon 01:50:16 AM 44.6390 -66.2590 52° Northeast 569 655 33,000  Level FlightAware ADS-B
Mon 01:50:57 AM 44.7090 -66.1310 52° Northeast 569 655 33,000  Level FlightAware ADS-B
Mon 01:51:43 AM 44.7810 -65.9970 53° Northeast 568 654 33,000  Level FlightAware ADS-B
Mon 01:52:23 AM 44.8450 -65.8790 53° Northeast 568 654 33,000  Level FlightAware ADS-B
Mon 01:53:07 AM 44.9160 -65.7480 53° Northeast 569 655 33,000  Level FlightAware ADS-B
Mon 01:53:49 AM 44.9820 -65.6240 53° Northeast 568 654 33,000  Level FlightAware ADS-B
Mon 01:54:29 AM 45.0450 -65.5050 53° Northeast 569 655 33,000  Level FlightAware ADS-B
Mon 01:55:09 AM 45.1090 -65.3840 53° Northeast 569 655 33,000  Level FlightAware ADS-B
Mon 01:55:53 AM 45.1780 -65.2550 53° Northeast 572 658 33,000  Level FlightAware ADS-B
Mon 01:56:33 AM 45.2430 -65.1340 53° Northeast 573 659 33,000  Level FlightAware ADS-B
Mon 01:57:13 AM 45.3070 -65.0130 53° Northeast 575 662 33,000  Level FlightAware ADS-B
Mon 01:57:59 AM 45.3810 -64.8720 53° Northeast 576 663 33,000  Level FlightAware ADS-B
Mon 01:58:39 AM 45.4440 -64.7530 53° Northeast 576 663 33,000  Level FlightAware ADS-B
Mon 01:59:23 AM 45.5130 -64.6190 54° Northeast 576 663 33,000  Level FlightAware ADS-B
Mon 02:00:19 AM 45.5770 -64.4960 53° Northeast 576 663 33,000  Level FlightAware ADS-B
Mon 02:01:01 AM 45.6690 -64.3170 54° Northeast 578 665 33,000  Level FlightAware ADS-B
Mon 02:01:55 AM 45.7470 -64.1680 53° Northeast 578 665 33,000  Level FlightAware ADS-B
Mon 02:02:55 AM 45.8290 -64.0110 53° Northeast 578 665 33,000  Level FlightAware ADS-B
Mon 02:03:32 AM 45.8800 -63.9150 53° Northeast 578 665 33,000  Level FlightAware ADS-B
Mon 02:04:18 AM 45.9430 -63.7950 53° Northeast 578 665 33,000  Level FlightAware ADS-B
Mon 02:04:55 AM 45.9930 -63.6980 53° Northeast 578 665 33,000  Level FlightAware ADS-B
Mon 02:05:56 AM 46.0770 -63.5390 53° Northeast 578 665 33,000  Level FlightAware ADS-B
Mon 02:06:33 AM 46.1270 -63.4420 53° Northeast 578 665 33,000  Level FlightAware ADS-B
Mon 02:07:21 AM 46.2660 -63.1320 57° Northeast 584 672 33,000  Level FlightAware ADS-B
Mon 02:08:02 AM 46.3290 -63.0040 54° Northeast 584 672 33,000  Level FlightAware ADS-B
Mon 02:08:42 AM 46.3940 -62.8720 54° Northeast 584 672 33,000  Level FlightAware ADS-B
Mon 02:09:41 AM 46.4780 -62.7020 54° Northeast 584 672 33,000  Level FlightAware ADS-B
Mon 02:10:20 AM 46.5460 -62.5590 55° Northeast 585 673 33,000  Level FlightAware ADS-B
Mon 02:11:00 AM 46.6080 -62.4310 55° Northeast 585 673 33,000  Level FlightAware ADS-B
Mon 02:11:44 AM 46.6770 -62.2870 55° Northeast 585 673 33,000  Level FlightAware ADS-B
Mon 02:12:26 AM 46.7410 -62.1510 55° Northeast 584 672 33,000  Level FlightAware ADS-B
Mon 02:13:06 AM 46.8030 -62.0220 55° Northeast 585 673 33,000  Level FlightAware ADS-B
Mon 02:13:52 AM 46.8730 -61.8740 55° Northeast 586 674 33,000  Level FlightAware ADS-B
Mon 02:14:32 AM 46.9350 -61.7440 55° Northeast 586 674 33,000  Level FlightAware ADS-B
Mon 02:15:24 AM 47.0140 -61.5740 56° Northeast 584 672 33,000  Level FlightAware ADS-B
Mon 02:16:04 AM 47.0740 -61.4440 56° Northeast 583 671 33,000  Level FlightAware ADS-B
Mon 02:16:48 AM 47.1420 -61.2970 56° Northeast 584 672 33,000  Level FlightAware ADS-B
Mon 02:17:28 AM 47.2010 -61.1690 56° Northeast 585 673 33,000  Level FlightAware ADS-B
Mon 02:18:10 AM 47.2630 -61.0320 56° Northeast 581 669 33,000  Level FlightAware ADS-B
Mon 02:18:48 AM 47.3230 -60.9020 56° Northeast 577 664 33,000  Level FlightAware ADS-B
Mon 02:19:28 AM 47.3730 -60.7910 56° Northeast 577 664 33,000  Level FlightAware ADS-B
Mon 02:20:17 AM 47.4360 -60.6550 56° Northeast 577 664 33,000  Level FlightAware ADS-B
Mon 02:20:53 AM 47.4810 -60.5550 56° Northeast 577 664 33,000  Level FlightAware ADS-B
Mon 02:21:41 AM 47.5420 -60.4210 56° Northeast 577 664 33,000  Level FlightAware ADS-B
Mon 02:22:18 AM 47.5890 -60.3180 56° Northeast 577 664 33,000  Level FlightAware ADS-B
Mon 02:23:06 AM 47.6500 -60.1840 56° Northeast 577 664 33,000  Level FlightAware ADS-B
Mon 02:23:42 AM 47.6960 -60.0830 56° Northeast 577 664 33,000 1,538 Level FlightAware ADS-B
Mon 02:24:24 AM 47.8200 -59.7930 57° Northeast 583 671 35,000 1,304 Climbing FlightAware ADS-B
Mon 02:25:14 AM 47.8830 -59.6530 56° Northeast 583 671 35,000  Level FlightAware ADS-B
Mon 02:26:00 AM 47.9620 -59.4670 58° Northeast 584 672 35,000  Level FlightAware ADS-B
Mon 02:26:46 AM 48.0250 -59.3180 58° Northeast 584 672 35,000  Level FlightAware ADS-B
Mon 02:27:24 AM 48.0780 -59.1940 57° Northeast 584 672 35,000  Level FlightAware ADS-B
Mon 02:28:10 AM 48.1490 -59.0260 58° Northeast 584 672 35,000  Level FlightAware ADS-B
Mon 02:28:54 AM 48.2150 -58.8710 57° Northeast 583 671 35,000  Level FlightAware ADS-B
Mon 02:29:30 AM 48.2620 -58.7600 58° Northeast 583 671 35,000  Level FlightAware ADS-B
Mon 02:30:19 AM 48.3220 -58.6160 58° Northeast 584 672 35,000  Level FlightAware ADS-B
Mon 02:31:00 AM 48.3920 -58.4480 58° Northeast 583 671 35,000  Level FlightAware ADS-B
Mon 02:31:39 AM 48.4480 -58.3120 58° Northeast 581 669 35,000  Level FlightAware ADS-B
Mon 02:32:25 AM 48.5110 -58.1610 58° Northeast 579 666 35,000  Level FlightAware ADS-B
Mon 02:33:05 AM 48.5710 -58.0140 58° Northeast 580 667 35,000  Level FlightAware ADS-B
Mon 02:33:49 AM 48.6330 -57.8620 58° Northeast 581 669 35,000  Level FlightAware ADS-B
Mon 02:34:30 AM 48.6900 -57.7210 58° Northeast 580 667 35,000  Level FlightAware ADS-B
Mon 02:35:09 AM 48.7440 -57.5860 59° Northeast 581 669 35,000  Level FlightAware ADS-B
Mon 02:35:55 AM 48.8090 -57.4240 59° Northeast 581 669 35,000  Level FlightAware ADS-B
Mon 02:36:35 AM 48.8650 -57.2830 59° Northeast 582 670 35,000  Level FlightAware ADS-B
Mon 02:37:19 AM 48.9270 -57.1260 59° Northeast 581 669 35,000  Level FlightAware ADS-B
Mon 02:37:54 AM 48.9700 -57.0040 62° Northeast 585 673 35,000  Level FlightAware ADS-B
Mon 02:38:40 AM 49.0260 -56.8330 63° Northeast 585 673 35,000  Level FlightAware ADS-B
Mon 02:39:25 AM 49.0790 -56.6710 63° Northeast 587 676 35,000  Level FlightAware ADS-B
Mon 02:40:09 AM 49.1350 -56.5040 63° Northeast 589 678 35,000  Level FlightAware ADS-B
Mon 02:40:45 AM 49.1790 -56.3740 63° Northeast 588 677 35,000  Level FlightAware ADS-B
Mon 02:41:30 AM 49.2350 -56.2050 63° Northeast 588 677 35,000  Level FlightAware ADS-B
Mon 02:42:14 AM 49.2890 -56.0440 63° Northeast 589 678 35,000  Level FlightAware ADS-B
Mon 02:42:39 AM 49.3210 -55.9460 63° Northeast 588 677 35,000  Level FlightAware ADS-B
Mon 02:43:24 AM 49.3750 -55.7780 64° Northeast 588 677 35,000  Level FlightAware ADS-B
Mon 02:44:05 AM 49.4230 -55.6300 63° Northeast 588 677 35,000  Level FlightAware ADS-B
Mon 02:44:46 AM 49.4720 -55.4750 64° Northeast 588 677 35,000  Level FlightAware ADS-B
Mon 02:45:34 AM 49.5140 -55.3430 64° Northeast 589 678 35,000  Level FlightAware ADS-B
Mon 02:48:26 AM 49.7150 -54.7030 64° Northeast 586 674 35,000  Level FlightAware ADS-B
Mon 02:49:07 AM 49.7780 -54.4950 65° Northeast 588 677 35,000  Level FlightAware ADS-B
Mon 02:49:50 AM 49.8290 -54.3220 65° Northeast 587 676 35,000  Level FlightAware ADS-B
Mon 02:50:31 AM 49.8750 -54.1690 65° Northeast 587 676 35,000  Level FlightAware ADS-B
Mon 02:51:11 AM 49.9190 -54.0170 66° East 588 677 35,000  Level FlightAware ADS-B
Mon 02:51:57 AM 49.9710 -53.8400 65° Northeast 588 677 35,000  Level FlightAware ADS-B
Mon 02:52:32 AM 50.0110 -53.7050 65° Northeast 586 674 35,000  Level FlightAware ADS-B
Mon 02:53:21 AM 50.0660 -53.5150 66° East 585 673 35,000  Level FlightAware ADS-B
Mon 02:54:01 AM 50.1110 -53.3600 66° East 584 672 35,000  Level FlightAware ADS-B
Mon 02:54:41 AM 50.1540 -53.2110 66° East 584 672 35,000  Level FlightAware ADS-B
Mon 02:55:27 AM 50.2030 -53.0360 66° East 583 671 35,000  Level FlightAware ADS-B
Mon 02:56:10 AM 50.2480 -52.8770 66° East 583 671 35,000  Level FlightAware ADS-B
Mon 02:56:46 AM 50.2870 -52.7360 67° East 580 667 35,000  Level FlightAware ADS-B
Mon 02:57:32 AM 50.3290 -52.5900 66° East 580 667 35,000  Level FlightAware ADS-B
Mon 02:58:11 AM 50.3810 -52.4010 67° East 578 665 35,000  Level FlightAware ADS-B
Mon 02:58:49 AM 50.4150 -52.2800 66° East 578 665 35,000  Level FlightAware ADS-B
Mon 02:59:35 AM 50.4570 -52.1300 66° East 578 665 35,000  Level FlightAware ADS-B
Mon 03:00:49 AM 50.5260 -51.8880 66° East 578 665 35,000  Level FlightAware ADS-B
Mon 03:01:25 AM 50.5590 -51.7710 66° East 578 665 35,000  Level FlightAware ADS-B
Mon 03:02:15 AM 50.6050 -51.6070 66° East 578 665 35,000  Level FlightAware ADS-B
Mon 03:02:51 AM 50.6380 -51.4890 66° East 578 665 35,000  Level FlightAware ADS-B
Mon 03:03:39 AM 50.6830 -51.3320 66° East 578 665 35,000  Level FlightAware ADS-B
Mon 03:04:15 AM 50.7160 -51.2140 66° East 578 665 35,000  Level FlightAware ADS-B
Mon 03:05:17 AM 50.7730 -51.0100 66° East 578 665 35,000  Level FlightAware ADS-B
Mon 03:05:53 AM 50.8060 -50.8920 66° East 578 665 35,000  Level FlightAware ADS-B
Mon 03:06:31 AM 50.8420 -50.7670 65° Northeast 578 665 35,000  Level FlightAware ADS-B
Mon 03:07:32 AM 50.8980 -50.5670 66° East 578 665 35,000  Level FlightAware ADS-B
Mon 03:08:09 AM 50.9320 -50.4450 66° East 578 665 35,000  Level FlightAware ADS-B
Mon 03:08:47 AM 51.0000 -49.9000 66° East 580 667 35,000  Level Gander Center
Mon 03:09:47 AM 51.0333 -49.6500 78° East 570 656 35,000  Level Gander Center
Mon 03:10:47 AM 51.0667 -49.4000 78° East 570 656 35,000  Level Gander Center
Mon 03:11:47 AM 51.1000 -49.1500 78° East 570 656 35,000  Level Gander Center
Mon 03:12:47 AM 51.1333 -48.9333 76° East 570 656 35,000  Level Gander Center
Mon 03:14:00 AM 51.1726 -48.6478 78° East  Level FlightAware Approximate
Mon 03:19:00 AM 51.0000 -50.0000 77° East 581 669 35,000  Level ETMS Enhanced Traffic Management System
Mon 03:21:00 AM 51.3848 -46.9958 78° East  Level FlightAware Approximate
Mon 03:22:00 AM 51.4132 -46.7586 79° East  Level FlightAware Approximate
Mon 03:23:00 AM 51.4411 -46.5211 79° East  Level FlightAware Approximate
Mon 03:24:00 AM 51.4685 -46.2833 80° East  Level FlightAware Approximate
Mon 03:25:00 AM 51.5403 -45.6960 80° East 581 669 35,000  Level FlightAware Transoceanic
Mon 03:26:00 AM 51.5672 -45.4398 81° East 581 669 35,000  Level FlightAware Transoceanic
Mon 03:27:00 AM 51.5934 -45.1833 81° East 581 669 35,000  Level FlightAware Transoceanic
Mon 03:28:00 AM 51.6191 -44.9266 81° East 581 669 35,000  Level FlightAware Transoceanic
Mon 03:29:00 AM 51.6443 -44.6695 81° East 581 669 35,000  Level FlightAware Transoceanic
Mon 03:30:00 AM 51.6689 -44.4122 81° East 581 669 35,000  Level FlightAware Transoceanic
Mon 03:31:00 AM 51.6929 -44.1545 82° East 581 669 35,000  Level FlightAware Transoceanic
Mon 03:32:00 AM 51.7164 -43.8967 82° East 581 669 35,000  Level FlightAware Transoceanic
Mon 03:33:00 AM 51.7393 -43.6385 82° East 581 669 35,000  Level FlightAware Transoceanic
Mon 03:34:00 AM 51.7616 -43.3801 82° East 581 669 35,000  Level FlightAware Transoceanic
Mon 03:35:00 AM 51.7834 -43.1214 82° East 581 669 35,000  Level FlightAware Transoceanic
Mon 03:36:00 AM 51.8046 -42.8625 83° East 581 669 35,000  Level FlightAware Transoceanic
Mon 03:37:00 AM 51.8252 -42.6034 83° East 581 669 35,000  Level FlightAware Transoceanic
Mon 03:38:00 AM 51.8453 -42.3440 83° East 581 669 35,000  Level FlightAware Transoceanic
Mon 03:39:00 AM 51.8648 -42.0844 83° East 581 669 35,000  Level FlightAware Transoceanic
Mon 03:40:00 AM 51.8837 -41.8245 83° East 581 669 35,000  Level FlightAware Transoceanic
Mon 03:41:00 AM 51.9020 -41.5645 84° East 581 669 35,000  Level FlightAware Transoceanic
Mon 03:42:00 AM 51.9198 -41.3042 84° East 581 669 35,000  Level FlightAware Transoceanic
Mon 03:43:00 AM 51.9370 -41.0438 84° East 581 669 35,000  Level FlightAware Transoceanic
Mon 03:44:00 AM 51.9536 -40.7831 84° East 581 669 35,000  Level FlightAware Transoceanic
Mon 03:45:00 AM 51.9696 -40.5222 84° East 581 669 35,000  Level FlightAware Transoceanic
Mon 03:46:00 AM 51.9851 -40.2612 85° East 581 669 35,000  Level FlightAware Transoceanic
Mon 03:47:00 AM 51.9990 -40.0175 85° East  Level FlightAware Approximate
Mon 03:48:00 AM 52.0124 -39.7737 85° East  Level FlightAware Approximate
Mon 03:49:00 AM 52.0087 -39.7908 86° East  Level FlightAware Approximate
Mon 03:50:00 AM 52.0184 -39.5465 86° East  Level FlightAware Approximate
Mon 03:51:00 AM 52.0275 -39.3021 86° East  Level FlightAware Approximate
Mon 03:52:00 AM 52.0362 -39.0575 87° East  Level FlightAware Approximate
Mon 03:53:00 AM 52.0444 -38.8129 87° East  Level FlightAware Approximate
Mon 03:54:00 AM 52.0518 -38.5741 87° East  Level FlightAware Approximate
Mon 03:55:00 AM 52.0588 -38.3352 87° East  Level FlightAware Approximate
Mon 03:56:00 AM 52.0653 -38.0963 87° East  Level FlightAware Approximate
Mon 03:57:00 AM 52.0714 -37.8573 88° East  Level FlightAware Approximate
Mon 03:58:00 AM 52.0769 -37.6183 88° East  Level FlightAware Approximate
Mon 03:59:00 AM 52.0820 -37.3792 88° East  Level FlightAware Approximate
Mon 04:00:00 AM 52.0866 -37.1400 88° East  Level FlightAware Approximate
Mon 04:01:00 AM 52.0906 -36.9008 88° East  Level FlightAware Approximate
Mon 04:02:00 AM 52.0942 -36.6615 89° East  Level FlightAware Approximate
Mon 04:03:00 AM 52.0974 -36.4222 89° East  Level FlightAware Approximate
Mon 04:04:00 AM 52.1000 -36.1829 89° East  Level FlightAware Approximate
Mon 04:05:00 AM 52.1022 -35.9436 89° East  Level FlightAware Approximate
Mon 04:06:00 AM 52.1038 -35.7042 89° East  Level FlightAware Approximate
Mon 04:07:00 AM 52.1050 -35.4649 89° East  Level FlightAware Approximate
Mon 04:08:00 AM 52.1057 -35.2255 90° East  Level FlightAware Approximate
Mon 04:09:00 AM 52.1059 -34.9861 90° East  Level FlightAware Approximate
Mon 04:10:00 AM 52.1057 -34.7467 90° East  Level FlightAware Approximate
Mon 04:11:00 AM 52.1049 -34.5073 90° East  Level FlightAware Approximate
Mon 04:12:00 AM 52.1036 -34.2679 90° East  Level FlightAware Approximate
Mon 04:13:00 AM 52.1019 -34.0285 91° East  Level FlightAware Approximate
Mon 04:14:00 AM 52.0997 -33.7892 91° East  Level FlightAware Approximate
Mon 04:15:00 AM 52.0970 -33.5499 91° East  Level FlightAware Approximate
Mon 04:16:00 AM 52.0938 -33.3106 91° East  Level FlightAware Approximate
Mon 04:17:00 AM 52.0902 -33.0714 91° East  Level FlightAware Approximate
Mon 04:18:00 AM 52.0860 -32.8322 92° East  Level FlightAware Approximate
Mon 04:19:00 AM 52.0814 -32.5930 92° East  Level FlightAware Approximate
Mon 04:20:00 AM 52.0763 -32.3539 92° East  Level FlightAware Approximate
Mon 04:21:00 AM 52.0707 -32.1149 92° East  Level FlightAware Approximate
Mon 04:22:00 AM 52.0646 -31.8759 92° East  Level FlightAware Approximate
Mon 04:23:00 AM 52.0580 -31.6370 92° East  Level FlightAware Approximate
Mon 04:24:00 AM 52.0510 -31.3981 93° East  Level FlightAware Approximate
Mon 04:25:00 AM 52.0435 -31.1593 93° East  Level FlightAware Approximate
Mon 04:26:00 AM 52.0355 -30.9207 93° East  Level FlightAware Approximate
Mon 04:27:00 AM 52.0270 -30.6821 93° East  Level FlightAware Approximate
Mon 04:28:00 AM 52.0180 -30.4436 93° East  Level FlightAware Approximate
Mon 04:29:00 AM 52.0085 -30.2052 94° East  Level FlightAware Approximate
Mon 04:29:00 AM 52.0000 -30.0000 86° East 567 652 35,000  Level ETMS Enhanced Traffic Management System
Mon 04:30:00 AM 52.0014 -29.9668 86° East  Level FlightAware Approximate
Mon 04:31:00 AM 52.0112 -29.7285 86° East  Level FlightAware Approximate
Mon 04:32:00 AM 52.0205 -29.4901 86° East  Level FlightAware Approximate
Mon 04:33:00 AM 52.0294 -29.2516 86° East  Level FlightAware Approximate
Mon 04:34:00 AM 52.0377 -29.0129 87° East  Level FlightAware Approximate
Mon 04:35:00 AM 52.0690 -27.9518 88° East 567 652 35,000  Level FlightAware Transoceanic
Mon 04:36:00 AM 52.0752 -27.6953 88° East 567 652 35,000  Level FlightAware Transoceanic
Mon 04:37:00 AM 52.0808 -27.4388 88° East 567 652 35,000  Level FlightAware Transoceanic
Mon 04:38:00 AM 52.0858 -27.1823 88° East 567 652 35,000  Level FlightAware Transoceanic
Mon 04:39:00 AM 52.0902 -26.9257 88° East 567 652 35,000  Level FlightAware Transoceanic
Mon 04:40:00 AM 52.0941 -26.6690 89° East 567 652 35,000  Level FlightAware Transoceanic
Mon 04:41:00 AM 52.0975 -26.4123 89° East 567 652 35,000  Level FlightAware Transoceanic
Mon 04:42:00 AM 52.1003 -26.1556 89° East 567 652 35,000  Level FlightAware Transoceanic
Mon 04:43:00 AM 52.1025 -25.8988 89° East 567 652 35,000  Level FlightAware Transoceanic
Mon 04:44:00 AM 52.1042 -25.6420 89° East 567 652 35,000  Level FlightAware Transoceanic
Mon 04:45:00 AM 52.1053 -25.3852 90° East 567 652 35,000  Level FlightAware Transoceanic
Mon 04:46:00 AM 52.1059 -25.1284 90° East 567 652 35,000  Level FlightAware Transoceanic
Mon 04:47:00 AM 52.1059 -24.8716 90° East 567 652 35,000  Level FlightAware Transoceanic
Mon 04:48:00 AM 52.1053 -24.6148 90° East 567 652 35,000  Level FlightAware Transoceanic
Mon 04:49:00 AM 52.1042 -24.3580 91° East 567 652 35,000  Level FlightAware Transoceanic
Mon 04:50:00 AM 52.1025 -24.1012 91° East 567 652 35,000  Level FlightAware Transoceanic
Mon 04:51:00 AM 52.1003 -23.8444 91° East 567 652 35,000  Level FlightAware Transoceanic
Mon 04:52:00 AM 52.0975 -23.5877 91° East 567 652 35,000  Level FlightAware Transoceanic
Mon 04:53:00 AM 52.0941 -23.3310 91° East 567 652 35,000  Level FlightAware Transoceanic
Mon 04:54:00 AM 52.0902 -23.0743 92° East 567 652 35,000  Level FlightAware Transoceanic
Mon 04:55:00 AM 52.0858 -22.8177 92° East 567 652 35,000  Level FlightAware Transoceanic
Mon 04:56:00 AM 52.0808 -22.5612 92° East 567 652 35,000  Level FlightAware Transoceanic
Mon 04:57:00 AM 52.0752 -22.3047 92° East 567 652 35,000  Level FlightAware Transoceanic
Mon 04:58:00 AM 52.0690 -22.0482 92° East 567 652 35,000  Level FlightAware Transoceanic
Mon 04:59:00 AM 52.0624 -21.7919 93° East 567 652 35,000  Level FlightAware Transoceanic
Mon 05:00:00 AM 52.0551 -21.5356 93° East 567 652 35,000  Level FlightAware Transoceanic
Mon 05:01:00 AM 52.0473 -21.2794 93° East 567 652 35,000  Level FlightAware Transoceanic
Mon 05:02:00 AM 52.0390 -21.0233 93° East 567 652 35,000  Level FlightAware Transoceanic
Mon 05:03:00 AM 52.0301 -20.7673 93° East 567 652 35,000  Level FlightAware Transoceanic
Mon 05:04:00 AM 52.0206 -20.5114 94° East 567 652 35,000  Level FlightAware Transoceanic
Mon 05:05:00 AM 52.0106 -20.2557 94° East 567 652 35,000  Level FlightAware Transoceanic
Mon 05:06:00 AM 52.0008 -20.0177 94° East  Level FlightAware Approximate
Mon 05:07:00 AM 51.9905 -19.7799 94° East  Level FlightAware Approximate
Mon 05:08:00 AM 52.0075 -19.7975 86° East  Level FlightAware Approximate
Mon 05:09:00 AM 52.0159 -19.5595 87° East  Level FlightAware Approximate
Mon 05:10:00 AM 52.0238 -19.3213 87° East  Level FlightAware Approximate
Mon 05:11:00 AM 52.0312 -19.0830 87° East  Level FlightAware Approximate
Mon 05:12:00 AM 52.0381 -18.8447 87° East  Level FlightAware Approximate
Mon 05:13:00 AM 52.0446 -18.6063 87° East  Level FlightAware Approximate
Mon 05:14:00 AM 52.0505 -18.3678 88° East  Level FlightAware Approximate
Mon 05:15:00 AM 52.0560 -18.1293 88° East  Level FlightAware Approximate
Mon 05:16:00 AM 52.0610 -17.8907 88° East  Level FlightAware Approximate
Mon 05:17:00 AM 52.0655 -17.6521 88° East  Level FlightAware Approximate
Mon 05:18:00 AM 52.0696 -17.4134 88° East  Level FlightAware Approximate
Mon 05:19:00 AM 52.0731 -17.1747 89° East  Level FlightAware Approximate
Mon 05:20:00 AM 52.0762 -16.9359 89° East  Level FlightAware Approximate
Mon 05:21:00 AM 52.0788 -16.6971 89° East  Level FlightAware Approximate
Mon 05:22:00 AM 52.0809 -16.4583 89° East  Level FlightAware Approximate
Mon 05:23:00 AM 52.0825 -16.2195 89° East  Level FlightAware Approximate
Mon 05:24:00 AM 52.0837 -15.9806 89° East  Level FlightAware Approximate
Mon 05:25:00 AM 52.0844 -15.7418 90° East  Level FlightAware Approximate
Mon 05:26:00 AM 52.0845 -15.5029 90° East  Level FlightAware Approximate
Mon 05:27:00 AM 52.0842 -15.2641 90° East  Level FlightAware Approximate
Mon 05:28:00 AM 52.0834 -15.0252 90° East  Level FlightAware Approximate
Mon 05:29:00 AM 52.0828 -14.7864 90° East  Level FlightAware Approximate
Mon 05:30:00 AM 52.0817 -14.5475 90° East  Level FlightAware Approximate
Mon 05:31:00 AM 52.0802 -14.3087 91° East  Level FlightAware Approximate
Mon 05:32:00 AM 52.0781 -14.0699 91° East  Level FlightAware Approximate
Mon 05:33:00 AM 52.0756 -13.8311 91° East  Level FlightAware Approximate
Mon 05:34:00 AM 52.0726 -13.5924 91° East  Level FlightAware Approximate
Mon 05:35:00 AM 52.0691 -13.3541 91° East  Level FlightAware Approximate
Mon 05:36:00 AM 52.0652 -13.1158 91° East  Level FlightAware Approximate
Mon 05:37:00 AM 52.0607 -12.8776 92° East  Level FlightAware Approximate
Mon 05:38:00 AM 52.0558 -12.6394 92° East  Level FlightAware Approximate
Mon 05:39:00 AM 52.0504 -12.4013 92° East  Level FlightAware Approximate
Mon 05:40:00 AM 52.0445 -12.1632 92° East  Level FlightAware Approximate
Mon 05:40:33 AM 52.0060 -11.7070 92° East 534 615 35,000  Level FlightAware ADS-B
Mon 05:41:00 AM 52.0382 -11.9253 92° East  Level FlightAware Approximate
Mon 05:41:14 AM 52.0020 -11.5430 92° East 531 611 35,000  Level FlightAware ADS-B
Mon 05:41:53 AM 51.9980 -11.3860 92° East 528 608 35,000  Level FlightAware ADS-B
Mon 05:42:24 AM 51.9960 -11.2690 92° East 526 605 35,000  Level FlightAware ADS-B
Mon 05:43:04 AM 51.9920 -11.1180 92° East 525 604 35,000  Level FlightAware ADS-B
Mon 05:44:19 AM 51.9830 -10.8150 93° East 526 605 35,000  Level FlightAware ADS-B
Mon 05:44:59 AM 51.9790 -10.6540 92° East 526 605 35,000  Level FlightAware ADS-B
Mon 05:45:40 AM 51.9740 -10.5000 93° East 527 606 35,000  Level FlightAware ADS-B
Mon 05:46:19 AM 51.9690 -10.3380 93° East 528 608 35,000  Level FlightAware ADS-B
Mon 05:46:50 AM 51.9650 -10.2180 93° East 528 608 35,000  Level FlightAware ADS-B
Mon 05:47:30 AM 51.9590 -10.0600 93° East 527 606 35,000  Level FlightAware ADS-B
Mon 05:48:11 AM 51.9540 -9.9040 93° East 526 605 35,000  Level FlightAware ADS-B
Mon 05:48:55 AM 51.9470 -9.7220 93° East 525 604 35,000  Level FlightAware ADS-B
Mon 05:49:25 AM 51.9430 -9.6100 93° East 526 605 35,000  Level FlightAware ADS-B
Mon 05:50:05 AM 51.9370 -9.4490 93° East 524 603 35,000  Level FlightAware ADS-B
Mon 05:50:45 AM 51.9310 -9.2920 93° East 526 605 35,000  Level FlightAware ADS-B
Mon 05:51:30 AM 51.9240 -9.1140 94° East 526 605 35,000  Level FlightAware ADS-B
Mon 05:52:00 AM 51.9190 -8.9970 94° East 525 604 35,000  Level FlightAware ADS-B
Mon 05:52:44 AM 51.9008 -8.8515 94° East 484 557 35,000  Level FlightAware UK
Mon 05:52:51 AM 51.9100 -8.7950 94° East 525 604 35,000  Level FlightAware ADS-B
Mon 05:53:31 AM 51.9030 -8.6390 94° East 526 605 35,000  Level FlightAware ADS-B
Mon 05:54:13 AM 51.8960 -8.4750 94° East 524 603 35,000  Level FlightAware ADS-B
Mon 05:54:39 AM 51.8910 -8.3740 94° East 524 603 35,000  Level FlightAware ADS-B
Mon 05:54:44 AM 51.8799 -8.3809 94° East 486 559 35,000  Level FlightAware UK
Mon 05:55:14 AM 51.8743 -8.2628 94° East 484 557 35,000  Level FlightAware UK
Mon 05:55:21 AM 51.8830 -8.2090 94° East 525 604 35,000  Level FlightAware ADS-B
Mon 05:56:05 AM 51.8740 -8.0360 95° East 525 604 35,000  Level FlightAware ADS-B
Mon 05:56:44 AM 51.8577 -7.9108 95° East 486 559 35,000  Level FlightAware UK
Mon 05:56:45 AM 51.8660 -7.8790 95° East 524 603 35,000  Level FlightAware ADS-B
Mon 05:57:18 AM 51.8590 -7.7480 95° East 524 603 35,000  Level FlightAware ADS-B
Mon 05:57:57 AM 51.8510 -7.5990 95° East 525 604 35,000  Level FlightAware ADS-B
Mon 05:58:38 AM 51.8430 -7.4600 95° East 35,000  Level FlightAware ADS-B
Mon 05:59:05 AM 51.8360 -7.3330 95° East 524 603 35,000  Level FlightAware ADS-B
Mon 05:59:44 AM 51.8201 -7.2078 95° East 490 564 35,000  Level FlightAware UK
Mon 05:59:49 AM 51.8270 -7.1620 95° East 524 603 35,000  Level FlightAware ADS-B
Mon 06:00:39 AM 51.8150 -6.9660 96° East 524 603 35,000  Level FlightAware ADS-B
Mon 06:01:09 AM 51.8090 -6.8540 96° East 524 603 35,000  Level FlightAware ADS-B
Mon 06:01:15 AM 51.7997 -6.8568 96° East 490 564 35,000  Level FlightAware UK
Mon 06:01:45 AM 51.7948 -6.7400 96° East 488 562 35,000  Level FlightAware UK
Mon 06:01:49 AM 51.8030 -6.6940 96° East 521 600 35,000  Level FlightAware ADS-B
Mon 06:02:31 AM 51.7980 -6.5300 93° East 522 601 35,000  Level FlightAware ADS-B
Mon 06:03:05 AM 51.7940 -6.3970 93° East 524 603 35,000  Level FlightAware ADS-B
Mon 06:03:45 AM 51.7815 -6.2729 93° East 486 559 35,000  Level FlightAware UK
Mon 06:03:46 AM 51.7880 -6.2390 93° East 524 603 35,000  Level FlightAware ADS-B
Mon 06:04:27 AM 51.7820 -6.0800 93° East 526 605 35,000  Level FlightAware ADS-B
Mon 06:05:07 AM 51.7750 -5.9280 94° East 528 608 35,000  Level FlightAware ADS-B
Mon 06:05:45 AM 51.7619 -5.8023 94° East 486 559 35,000  Level FlightAware UK
Mon 06:06:07 AM 51.7640 -5.6870 94° East 531 611 35,000  Level FlightAware ADS-B
Mon 06:06:39 AM 51.7580 -5.5590 94° East 532 612 35,000  Level FlightAware ADS-B
Mon 06:07:15 AM 51.7454 -5.4463 94° East 492 566 35,000  Level FlightAware UK
Mon 06:07:21 AM 51.7500 -5.3920 94° East 533 613 35,000  Level FlightAware ADS-B
Mon 06:08:15 AM 51.7341 -5.2086 94° East 492 566 35,000  Level FlightAware UK
Mon 06:08:23 AM 51.7390 -5.1500 94° East 533 613 35,000  Level FlightAware ADS-B
Mon 06:08:55 AM 51.7330 -5.0230 94° East 533 613 35,000  Level FlightAware ADS-B
Mon 06:09:35 AM 51.7250 -4.8640 95° East 534 615 35,000  Level FlightAware ADS-B
Mon 06:10:15 AM 51.7170 -4.7040 95° East 535 616 35,000  Level FlightAware ADS-B
Mon 06:10:47 AM 51.7110 -4.5760 94° East 536 617 35,000  Level FlightAware ADS-B
Mon 06:11:23 AM 51.7050 -4.4520 94° East 536 617 35,000  Level FlightAware ADS-B
Mon 06:12:03 AM 51.6892 -4.3030 94° East 494 568 35,000  Level FlightAware UK
Mon 06:12:07 AM 51.6950 -4.2670 94° East 537 618 35,000  Level FlightAware ADS-B
Mon 06:12:45 AM 51.6797 -4.1359 94° East 494 568 35,000  Level FlightAware UK
Mon 06:12:49 AM 51.6850 -4.0980 94° East 537 618 35,000  Level FlightAware ADS-B
Mon 06:13:21 AM 51.6780 -3.9720 95° East 537 618 35,000  Level FlightAware ADS-B
Mon 06:13:51 AM 51.6641 -3.8725 95° East 494 568 35,000  Level FlightAware UK
Mon 06:14:01 AM 51.6680 -3.8120 95° East 536 617 35,000  Level FlightAware ADS-B
Mon 06:14:33 AM 51.6539 -3.7050 95° East 494 568 35,000  Level FlightAware UK
Mon 06:14:37 AM 51.6600 -3.6690 95° East 536 617 35,000  Level FlightAware ADS-B
Mon 06:15:42 AM 51.6431 -3.4023 96° East 536 617 35,000  Level FlightAware ADS-B
Mon 06:16:24 AM 51.6326 -3.2365 96° East 537 618 35,000  Level FlightAware ADS-B
Mon 06:16:57 AM 51.6245 -3.1061 96° East 539 620 35,000  Level FlightAware ADS-B
Mon 06:17:27 AM 51.6170 -2.9861 96° East 540 621 35,000  Level FlightAware ADS-B
Mon 06:17:58 AM 51.6091 -2.8637 96° East 541 623 35,000  Level FlightAware ADS-B
Mon 06:18:28 AM 51.6010 -2.7413 96° East 542 624 35,000  Level FlightAware ADS-B
Mon 06:18:59 AM 51.5926 -2.6179 96° East 542 624 35,000  Level FlightAware ADS-B
Mon 06:19:29 AM 51.5843 -2.4975 96° East 542 624 35,000  Level FlightAware ADS-B
Mon 06:20:02 AM 51.5751 -2.3665 96° East 544 626 35,000  Level FlightAware ADS-B
Mon 06:20:32 AM 51.5665 -2.2445 96° East 543 625 35,000  Level FlightAware ADS-B
Mon 06:21:03 AM 51.5579 -2.1235 96° East 543 625 35,000  Level FlightAware ADS-B
Mon 06:21:33 AM 51.5494 -2.0029 96° East 543 625 35,000  Level FlightAware ADS-B
Mon 06:22:03 AM 51.5403 -1.8807 97° East 543 625 35,000  Level FlightAware ADS-B
Mon 06:22:35 AM 51.5308 -1.7561 97° East 543 625 35,000  Level FlightAware ADS-B
Mon 06:23:06 AM 51.5212 -1.6298 97° East 543 625 35,000  Level FlightAware ADS-B
Mon 06:23:36 AM 51.5121 -1.5102 97° East 542 624 35,000  Level FlightAware ADS-B
Mon 06:24:08 AM 51.5021 -1.3839 97° East 541 623 35,000  Level FlightAware ADS-B
Mon 06:24:39 AM 51.4925 -1.2614 97° East 540 621 35,000  Level FlightAware ADS-B
Mon 06:25:09 AM 51.4827 -1.1401 97° East 540 621 35,000  Level FlightAware ADS-B
Mon 06:25:42 AM 51.4723 -1.0126 97° East 540 621 35,000  Level FlightAware ADS-B
Mon 06:26:18 AM 51.4601 -0.8675 98° East 539 620 35,000  Level FlightAware ADS-B
Mon 06:26:49 AM 51.4498 -0.7452 98° East 539 620 35,000  Level FlightAware ADS-B
Mon 06:27:20 AM 51.4393 -0.6244 98° East 539 620 35,000  Level FlightAware ADS-B
Mon 06:27:50 AM 51.4290 -0.5053 98° East 540 621 35,000  Level FlightAware ADS-B
Mon 06:28:21 AM 51.4185 -0.3841 98° East 540 621 35,000  Level FlightAware ADS-B
Mon 06:28:52 AM 51.4077 -0.2619 98° East 540 621 35,000  Level FlightAware ADS-B
Mon 06:29:22 AM 51.3967 -0.1397 98° East 542 624 35,000  Level FlightAware ADS-B
Mon 06:29:57 AM 51.3844 -0.0017 98° East 543 625 35,000  Level FlightAware ADS-B
Mon 06:30:29 AM 51.3729 0.1246 98° East 544 626 35,000  Level FlightAware ADS-B
Mon 06:31:00 AM 51.3615 0.2475 98° East 545 627 35,000  Level FlightAware ADS-B
Mon 06:31:30 AM 51.3502 0.3670 99° East 545 627 35,000  Level FlightAware ADS-B
Mon 06:32:03 AM 51.3378 0.4970 99° East 546 628 35,000  Level FlightAware ADS-B
Mon 06:32:33 AM 51.3264 0.6171 99° East 547 629 35,000  Level FlightAware ADS-B
Mon 06:33:04 AM 51.3142 0.7417 99° East 548 631 35,000  Level FlightAware ADS-B
Mon 06:33:36 AM 51.3017 0.8715 99° East 549 632 35,000  Level FlightAware ADS-B
Mon 06:34:07 AM 51.2798 0.9515 99° East 488 562 35,000 162 Level FlightAware UK
Mon 06:34:13 AM 51.2933 1.0078 99° East 549 632 35,100  Climbing FlightAware ADS-B
Mon 06:34:43 AM 51.2655 1.0953 99° East 488 562 35,000  Descending FlightAware UK
Mon 06:34:49 AM 51.2788 1.1543 99° East 550 633 35,100 150 Climbing FlightAware ADS-B
Mon 06:35:23 AM 51.2660 1.2830 99° East 549 632 35,100  Level FlightAware ADS-B
Mon 06:36:04 AM 51.2490 1.4450 99° East 549 632 35,100 -120 Level FlightAware ADS-B
Mon 06:36:13 AM 51.2287 1.4552 99° East 486 559 35,000  Descending FlightAware UK
Mon 06:36:43 AM 51.2330 1.5970 99° East 550 633 35,100 79 Climbing FlightAware ADS-B
Mon 06:37:29 AM 51.2130 1.7890 99° East 551 634 35,100  Level FlightAware ADS-B
Mon 06:37:59 AM 51.2000 1.9080 100° East 552 635 35,100  Level FlightAware ADS-B
Mon 06:38:38 AM 51.1740 2.0650 100° East 544 626 35,100 -136 Level FlightAware ADS-B
Mon 06:38:43 AM 51.1544 2.0523 100° East 490 564 35,000 -171 Descending FlightAware UK
Mon 06:39:13 AM 51.1326 2.1680 100° East 492 566 35,000 154 Level FlightAware UK
Mon 06:39:22 AM 51.1430 2.2320 100° East 544 626 35,100 109 Climbing FlightAware ADS-B
Mon 06:40:08 AM 51.1100 2.4020 107° East 542 624 35,100 -69 Level FlightAware ADS-B
Mon 06:40:49 AM 51.0623 2.5344 107° East 490 564 35,000  Descending FlightAware UK
Mon 06:40:58 AM 51.0750 2.5830 107° East 541 623 35,100 111 Climbing FlightAware ADS-B
Mon 06:41:43 AM 51.0400 2.7650 107° East 538 619 35,100  Level FlightAware ADS-B
Mon 06:42:20 AM 51.0150 2.8950 107° East 540 621 35,100  Level FlightAware ADS-B
Mon 06:43:02 AM 50.9830 3.0580 107° East 540 621 35,100  Level FlightAware ADS-B
Mon 06:43:34 AM 50.9580 3.1860 107° East 539 620 35,100  Level FlightAware ADS-B
Mon 06:44:16 AM 50.9260 3.3470 107° East 538 619 35,100  Level FlightAware ADS-B
Mon 06:45:24 AM 50.8760 3.5920 108° East 536 617 35,100  Level FlightAware ADS-B
Mon 06:46:04 AM 50.8450 3.7460 108° East 534 615 35,100  Level FlightAware ADS-B
Mon 06:46:49 AM 50.8100 3.9110 108° East 533 613 35,100 -80 Level FlightAware ADS-B
Mon 06:47:19 AM 50.7679 3.9989 108° East 488 562 35,000  Descending FlightAware UK
Mon 06:47:19 AM 50.7870 4.0200 108° East 533 613 35,100 150 Climbing FlightAware ADS-B
Mon 06:47:59 AM 50.7570 4.1580 109° East 533 613 35,100 -76 Level FlightAware ADS-B
Mon 06:48:38 AM 50.7057 4.2862 109° East 490 564 35,000  Descending FlightAware UK
Mon 06:48:39 AM 50.7230 4.3170 109° East 531 611 35,100 194 Climbing FlightAware ADS-B
Mon 06:49:09 AM 50.7020 4.4150 109° East 530 610 35,100  Level FlightAware ADS-B
Mon 06:49:54 AM 50.6660 4.5910 108° East 529 609 35,100  Level FlightAware ADS-B
Mon 06:50:34 AM 50.6370 4.7360 107° East 528 608 35,100  Level FlightAware ADS-B
Mon 06:51:04 AM 50.6150 4.8490 107° East 526 605 35,100  Level FlightAware ADS-B
Mon 06:51:44 AM 50.5890 4.9760 108° East 525 604 35,100  Level FlightAware ADS-B
Mon 06:52:24 AM 50.5560 5.1370 108° East 527 606 35,100  Level FlightAware ADS-B
Mon 06:52:55 AM 50.5360 5.2320 108° East 527 606 35,100  Level FlightAware ADS-B
Mon 06:53:44 AM 50.4950 5.4270 108° East 527 606 35,100  Level FlightAware ADS-B
Mon 06:54:19 AM 50.4700 5.5460 108° East 526 605 35,100  Level FlightAware ADS-B
Mon 06:54:59 AM 50.4380 5.6960 108° East 527 606 35,100  Level FlightAware ADS-B
Mon 06:55:29 AM 50.4120 5.8130 109° East 527 606 35,100  Level FlightAware ADS-B
Mon 06:56:07 AM 50.3830 5.9490 108° East 527 606 35,100  Level FlightAware ADS-B
Mon 06:56:49 AM 50.3490 6.1000 109° East 525 604 35,100  Level FlightAware ADS-B
Mon 06:57:21 AM 50.3140 6.2100 116° Southeast 518 596 35,100  Level FlightAware ADS-B
Mon 06:58:01 AM 50.2570 6.3280 127° Southeast 512 589 35,100  Level FlightAware ADS-B
Mon 06:58:43 AM 50.1950 6.4470 129° Southeast 513 590 35,100  Level FlightAware ADS-B
Mon 06:59:23 AM 50.1340 6.5640 129° Southeast 513 590 35,100  Level FlightAware ADS-B
Mon 06:59:52 AM 50.0940 6.6390 130° Southeast 513 590 35,100  Level FlightAware ADS-B
Mon 07:00:35 AM 50.0270 6.7680 129° Southeast 512 589 35,100  Level FlightAware ADS-B
Mon 07:01:15 AM 49.9670 6.8810 130° Southeast 513 590 35,100  Level FlightAware ADS-B
Mon 07:01:43 AM 49.9250 6.9590 130° Southeast 514 592 35,100  Level FlightAware ADS-B
Mon 07:02:29 AM 49.8540 7.0910 130° Southeast 513 590 35,100  Level FlightAware ADS-B
Mon 07:03:09 AM 49.7930 7.2050 130° Southeast 512 589 35,100  Level FlightAware ADS-B
Mon 07:03:41 AM 49.7460 7.2920 130° Southeast 512 589 35,100  Level FlightAware ADS-B
Mon 07:04:21 AM 49.6840 7.4070 130° Southeast 511 588 35,100  Level FlightAware ADS-B
Mon 07:05:01 AM 49.6230 7.5190 130° Southeast 510 587 35,100  Level FlightAware ADS-B
Mon 07:05:44 AM 49.5630 7.6300 130° Southeast 504 580 35,100  Level FlightAware ADS-B
Mon 07:06:09 AM 49.5270 7.6960 130° Southeast 503 579 35,100  Level FlightAware ADS-B
Mon 07:06:51 AM 49.4570 7.8220 130° Southeast 508 585 35,100  Level FlightAware ADS-B
Mon 07:07:33 AM 49.3930 7.9390 130° Southeast 507 583 35,100  Level FlightAware ADS-B
Mon 07:08:17 AM 49.3290 8.0550 130° Southeast 507 583 35,100  Level FlightAware ADS-B
Mon 07:08:45 AM 49.2860 8.1330 130° Southeast 508 585 35,100  Level FlightAware ADS-B
Mon 07:09:35 AM 49.2160 8.2600 130° Southeast 507 583 35,100  Level FlightAware ADS-B
Mon 07:10:25 AM 49.1450 8.3880 130° Southeast 507 583 35,100  Level FlightAware ADS-B
Mon 07:11:08 AM 49.0700 8.5230 130° Southeast 507 583 35,100  Level FlightAware ADS-B
Mon 07:11:37 AM 49.0240 8.6040 131° Southeast 507 583 35,100  Level FlightAware ADS-B
Mon 07:12:22 AM 48.9550 8.7280 130° Southeast 506 582 35,100  Level FlightAware ADS-B
Mon 07:13:02 AM 48.8940 8.8350 131° Southeast 505 581 35,100  Level FlightAware ADS-B
Mon 07:13:32 AM 48.8450 8.9080 136° Southeast 497 572 35,100  Level FlightAware ADS-B
Mon 07:14:12 AM 48.7700 8.9870 145° Southeast 497 572 35,100  Level FlightAware ADS-B
Mon 07:14:42 AM 48.7150 9.0470 144° Southeast 500 575 35,100  Level FlightAware ADS-B
Mon 07:15:22 AM 48.6400 9.1330 143° Southeast 501 577 35,100  Level FlightAware ADS-B
Mon 07:16:07 AM 48.5580 9.2260 143° Southeast 501 577 35,100  Level FlightAware ADS-B
Mon 07:16:47 AM 48.4870 9.3000 145° Southeast 501 577 35,100  Level FlightAware ADS-B
Mon 07:17:17 AM 48.4300 9.3590 146° Southeast 502 578 35,100  Level FlightAware ADS-B
Mon 07:17:58 AM 48.3460 9.4460 145° Southeast 501 577 35,100  Level FlightAware ADS-B
Mon 07:18:38 AM 48.2710 9.5250 145° Southeast 500 575 35,100  Level FlightAware ADS-B
Mon 07:19:18 AM 48.1970 9.6020 145° Southeast 500 575 35,100  Level FlightAware ADS-B
Mon 07:19:54 AM 48.1320 9.6690 145° Southeast 35,100  Level FlightAware ADS-B
Mon 07:20:41 AM 48.0360 9.7670 146° Southeast 500 575 35,100  Level FlightAware ADS-B
Mon 07:21:32 AM 47.9420 9.8640 145° Southeast 500 575 35,100  Level FlightAware ADS-B
Mon 07:22:06 AM 47.8740 9.9330 146° Southeast 500 575 35,100  Level FlightAware ADS-B
Mon 07:22:46 AM 47.7980 10.0110 145° Southeast 499 574 35,100  Level FlightAware ADS-B
Mon 07:23:11 AM 47.7500 10.0590 146° Southeast 499 574 35,100  Level FlightAware ADS-B
Mon 07:24:06 AM 47.6450 10.1650 146° Southeast 499 574 35,100  Level FlightAware ADS-B
Mon 07:24:37 AM 47.5890 10.2200 146° Southeast 500 575 35,100  Level FlightAware ADS-B
Mon 07:25:17 AM 47.5160 10.2940 146° Southeast 492 566 35,100  Level FlightAware ADS-B
Mon 07:25:47 AM 47.4560 10.3530 146° Southeast 500 575 35,100  Level FlightAware ADS-B
Mon 07:26:27 AM 47.3780 10.4300 146° Southeast 500 575 35,100  Level FlightAware ADS-B
Mon 07:27:42 AM 47.2320 10.5730 146° Southeast 497 572 35,100  Level FlightAware ADS-B
Mon 07:28:22 AM 47.1510 10.6320 154° Southeast 495 570 35,100  Level FlightAware ADS-B
Mon 07:29:08 AM 47.0580 10.7000 154° Southeast 487 560 35,100  Level FlightAware ADS-B
Mon 07:29:43 AM 46.9880 10.7520 153° Southeast 488 562 35,100  Level FlightAware ADS-B
Mon 07:30:24 AM 46.9020 10.8180 152° Southeast 488 562 35,100  Level FlightAware ADS-B
Mon 07:31:18 AM 46.7920 10.9080 151° Southeast 499 574 35,100  Level FlightAware ADS-B
Mon 07:31:57 AM 46.7240 10.9940 139° Southeast 503 579 35,100  Level FlightAware ADS-B
Mon 07:32:27 AM 46.6780 11.0710 131° Southeast 505 581 35,100  Level FlightAware ADS-B
Mon 07:33:07 AM 46.6180 11.1720 131° Southeast 505 581 35,100  Level FlightAware ADS-B
Mon 07:33:47 AM 46.5590 11.2750 130° Southeast 505 581 35,100  Level FlightAware ADS-B
Mon 07:34:27 AM 46.4970 11.3790 131° Southeast 504 580 35,100  Level FlightAware ADS-B
Mon 07:34:58 AM 46.4500 11.4590 130° Southeast 498 573 35,100  Level FlightAware ADS-B
Mon 07:35:39 AM 46.3870 11.5620 132° Southeast 498 573 35,100  Level FlightAware ADS-B
Mon 07:36:22 AM 46.3200 11.6740 131° Southeast 504 580 35,100  Level FlightAware ADS-B
Mon 07:36:52 AM 46.2750 11.7500 131° Southeast 503 579 35,100  Level FlightAware ADS-B
Mon 07:37:32 AM 46.2130 11.8510 132° Southeast 505 581 35,100  Level FlightAware ADS-B
Mon 07:38:02 AM 46.1680 11.9270 131° Southeast 506 582 35,100  Level FlightAware ADS-B
Mon 07:38:47 AM 46.1000 12.0380 131° Southeast 505 581 35,100  Level FlightAware ADS-B
Mon 07:39:37 AM 46.0210 12.1670 131° Southeast 505 581 35,100  Level FlightAware ADS-B
Mon 07:40:14 AM 45.9650 12.2590 131° Southeast 500 575 35,100  Level FlightAware ADS-B
Mon 07:41:06 AM 45.8890 12.3840 131° Southeast 499 574 35,100  Level FlightAware ADS-B
Mon 07:41:39 AM 45.8350 12.4760 130° Southeast 499 574 35,100  Level FlightAware ADS-B
Mon 07:42:19 AM 45.7780 12.5830 127° Southeast 501 577 35,100  Level FlightAware ADS-B
Mon 07:42:54 AM 45.7310 12.6740 126° Southeast 502 578 35,100 222 Level FlightAware ADS-B
Mon 07:43:40 AM 45.6660 12.8030 126° Southeast 500 575 35,400 519 Climbing FlightAware ADS-B
Mon 07:44:15 AM 45.6170 12.8980 126° Southeast 501 577 35,800 800 Climbing FlightAware ADS-B
Mon 07:44:55 AM 45.5640 13.0030 126° Southeast 502 578 36,400 943 Climbing FlightAware ADS-B
Mon 07:45:25 AM 45.5200 13.0870 127° Southeast 501 577 36,900 560 Climbing FlightAware ADS-B
Mon 07:46:10 AM 45.4580 13.2090 126° Southeast 503 579 37,100 141 Climbing FlightAware ADS-B
Mon 07:46:50 AM 45.4020 13.3150 127° Southeast 507 583 37,100  Level FlightAware ADS-B
Mon 07:47:30 AM 45.3520 13.4100 127° Southeast 506 582 37,100  Level FlightAware ADS-B
Mon 07:48:10 AM 45.2920 13.5230 127° Southeast 507 583 37,100  Level FlightAware ADS-B
Mon 07:48:50 AM 45.2390 13.6210 128° Southeast 508 585 37,100  Level FlightAware ADS-B
Mon 07:49:20 AM 45.1910 13.7110 127° Southeast 508 585 37,100  Level FlightAware ADS-B
Mon 07:50:00 AM 45.1340 13.8180 127° Southeast 508 585 37,100  Level FlightAware ADS-B
Mon 07:50:30 AM 45.0910 13.9010 126° Southeast 503 579 37,100  Level FlightAware ADS-B
Mon 07:51:15 AM 45.0300 14.0180 126° Southeast 508 585 37,100  Level FlightAware ADS-B
Mon 07:51:55 AM 44.9720 14.1270 127° Southeast 507 583 37,100  Level FlightAware ADS-B
Mon 07:52:36 AM 44.9320 14.2010 127° Southeast 508 585 37,100  Level FlightAware ADS-B
Mon 07:53:16 AM 44.8840 14.2910 127° Southeast 508 585 37,100  Level FlightAware ADS-B
Mon 07:54:20 AM 44.7680 14.5040 127° Southeast 507 583 37,100  Level FlightAware ADS-B
Mon 07:54:55 AM 44.7160 14.5980 128° Southeast 506 582 37,100  Level FlightAware ADS-B
Mon 07:55:51 AM 44.6450 14.7290 127° Southeast 507 583 37,100  Level FlightAware ADS-B
Mon 07:57:07 AM 44.5410 14.9190 127° Southeast 506 582 37,100  Level FlightAware ADS-B
Mon 07:57:44 AM 44.4790 15.0270 129° Southeast 501 577 37,100  Level FlightAware ADS-B
Mon 07:58:24 AM 44.4230 15.1270 128° Southeast 501 577 37,100  Level FlightAware ADS-B
Mon 07:59:19 AM 44.3380 15.2790 128° Southeast 501 577 37,100  Level FlightAware ADS-B
Mon 07:59:59 AM 44.2820 15.3800 128° Southeast 503 579 37,100  Level FlightAware ADS-B
Mon 08:00:39 AM 44.2230 15.4840 128° Southeast 504 580 37,100  Level FlightAware ADS-B
Mon 08:01:19 AM 44.1640 15.5890 128° Southeast 505 581 37,100  Level FlightAware ADS-B
Mon 08:01:54 AM 44.1150 15.6770 128° Southeast 505 581 37,100  Level FlightAware ADS-B
Mon 08:02:34 AM 44.0540 15.7850 128° Southeast 506 582 37,100  Level FlightAware ADS-B
Mon 08:03:14 AM 43.9950 15.8880 129° Southeast 506 582 37,100  Level FlightAware ADS-B
Mon 08:03:54 AM 43.9390 15.9850 129° Southeast 511 588 37,100  Level FlightAware ADS-B
Mon 08:04:24 AM 43.8920 16.0660 129° Southeast 506 582 37,100  Level FlightAware ADS-B
Mon 08:05:20 AM 43.8070 16.2130 129° Southeast 512 589 37,100  Level FlightAware ADS-B
Mon 08:05:56 AM 43.7540 16.3050 129° Southeast 511 588 37,100  Level FlightAware ADS-B
Mon 08:06:42 AM 43.6890 16.4170 129° Southeast 510 587 37,100  Level FlightAware ADS-B
Mon 08:07:20 AM 43.6300 16.5180 129° Southeast 510 587 37,100  Level FlightAware ADS-B
Mon 08:08:00 AM 43.5710 16.6190 129° Southeast 511 588 37,100  Level FlightAware ADS-B
Mon 08:08:54 AM 43.4900 16.7570 129° Southeast 511 588 37,100  Level FlightAware ADS-B
Mon 08:09:22 AM 43.4480 16.8280 129° Southeast 511 588 37,100  Level FlightAware ADS-B
Mon 08:10:04 AM 43.3880 16.9310 129° Southeast 512 589 37,100  Level FlightAware ADS-B
Mon 08:10:38 AM 43.3360 17.0190 129° Southeast 513 590 37,100  Level FlightAware ADS-B
Mon 08:11:30 AM 43.2630 17.1430 129° Southeast 514 592 37,100  Level FlightAware ADS-B
Mon 08:12:14 AM 43.1940 17.2600 129° Southeast 514 592 37,100  Level FlightAware ADS-B
Mon 08:12:54 AM 43.1350 17.3600 129° Southeast 514 592 37,100  Level FlightAware ADS-B
Mon 08:13:34 AM 43.0730 17.4630 129° Southeast 515 593 37,100  Level FlightAware ADS-B
Mon 08:14:04 AM 43.0280 17.5380 129° Southeast 515 593 37,100  Level FlightAware ADS-B
Mon 08:14:44 AM 42.9680 17.6380 129° Southeast 511 588 37,100  Level FlightAware ADS-B
Mon 08:15:24 AM 42.9090 17.7360 129° Southeast 512 589 37,100  Level FlightAware ADS-B
Mon 08:16:19 AM 42.8240 17.8750 130° Southeast 513 590 37,100  Level FlightAware ADS-B
Mon 08:16:49 AM 42.7790 17.9480 130° Southeast 514 592 37,100  Level FlightAware ADS-B
Mon 08:17:32 AM 42.7090 18.0630 130° Southeast 520 598 37,100  Level FlightAware ADS-B
Mon 08:17:58 AM 42.6690 18.1290 129° Southeast 520 598 37,100  Level FlightAware ADS-B
Mon 08:18:40 AM 42.6030 18.2350 130° Southeast 522 601 37,100  Level FlightAware ADS-B
Mon 08:19:24 AM 42.5330 18.3390 132° Southeast 521 600 37,100  Level FlightAware ADS-B
Mon 08:20:04 AM 42.4650 18.4310 135° Southeast 522 601 37,100  Level FlightAware ADS-B
Mon 08:20:36 AM 42.4080 18.5070 135° Southeast 523 602 37,100  Level FlightAware ADS-B
Mon 08:21:14 AM 42.3450 18.5910 135° Southeast 523 602 37,100  Level FlightAware ADS-B
Mon 08:22:00 AM 42.2640 18.6990 135° Southeast 523 602 37,100  Level FlightAware ADS-B
Mon 08:22:49 AM 42.1910 18.7970 135° Southeast 524 603 37,100  Level FlightAware ADS-B
Mon 08:23:30 AM 42.1090 18.9060 135° Southeast 524 603 37,100  Level FlightAware ADS-B
Mon 08:24:01 AM 42.0600 18.9720 135° Southeast 37,100  Level FlightAware ADS-B
Mon 08:24:46 AM 41.9790 19.0800 135° Southeast 523 602 37,100  Level FlightAware ADS-B
Mon 08:25:18 AM 41.9230 19.1550 135° Southeast 524 603 37,100  Level FlightAware ADS-B
Mon 08:25:58 AM 41.8540 19.2460 135° Southeast 524 603 37,100  Level FlightAware ADS-B
Mon 08:26:38 AM 41.7860 19.3330 136° Southeast 523 602 37,100  Level FlightAware ADS-B
Mon 08:27:18 AM 41.7130 19.4260 136° Southeast 524 603 37,100  Level FlightAware ADS-B
Mon 08:28:10 AM 41.6230 19.5420 136° Southeast 525 604 37,100  Level FlightAware ADS-B
Mon 08:28:54 AM 41.5480 19.6390 136° Southeast 524 603 37,100  Level FlightAware ADS-B
Mon 08:29:34 AM 41.4750 19.7310 137° Southeast 524 603 37,100  Level FlightAware ADS-B
Mon 08:30:16 AM 41.4010 19.8250 136° Southeast 524 603 37,100  Level FlightAware ADS-B
Mon 08:31:01 AM 41.3230 19.9220 137° Southeast 524 603 37,100  Level FlightAware ADS-B
Mon 08:31:40 AM 41.2530 20.0100 137° Southeast 524 603 37,100  Level FlightAware ADS-B
Mon 08:32:20 AM 41.1820 20.0990 137° Southeast 524 603 37,100  Level FlightAware ADS-B
Mon 08:33:04 AM 41.1050 20.1950 137° Southeast 522 601 37,100  Level FlightAware ADS-B
Mon 08:33:44 AM 41.0350 20.2820 137° Southeast 524 603 37,100  Level FlightAware ADS-B
Mon 08:34:16 AM 40.9780 20.3520 137° Southeast 525 604 37,100  Level FlightAware ADS-B
Mon 08:34:56 AM 40.9060 20.4410 137° Southeast 527 606 37,100  Level FlightAware ADS-B
Mon 08:35:38 AM 40.8320 20.5320 137° Southeast 528 608 37,100  Level FlightAware ADS-B
Mon 08:36:20 AM 40.7610 20.6190 137° Southeast 530 610 37,100  Level FlightAware ADS-B
Mon 08:36:58 AM 40.6860 20.7100 137° Southeast 530 610 37,100  Level FlightAware ADS-B
Mon 08:37:42 AM 40.6090 20.8030 137° Southeast 532 612 37,100  Level FlightAware ADS-B
Mon 08:38:14 AM 40.5490 20.8740 138° Southeast 532 612 37,100  Level FlightAware ADS-B
Mon 08:38:54 AM 40.4800 20.9700 133° Southeast 537 618 37,100  Level FlightAware ADS-B
Mon 08:39:36 AM 40.4130 21.0710 131° Southeast 538 619 37,100  Level FlightAware ADS-B
Mon 08:40:16 AM 40.3450 21.1710 132° Southeast 537 618 37,100  Level FlightAware ADS-B
Mon 08:40:56 AM 40.2790 21.2670 132° Southeast 538 619 37,100  Level FlightAware ADS-B
Mon 08:41:38 AM 40.2090 21.3680 132° Southeast 539 620 37,100  Level FlightAware ADS-B
Mon 08:42:10 AM 40.1540 21.4450 133° Southeast 539 620 37,100  Level FlightAware ADS-B
Mon 08:42:50 AM 40.0870 21.5390 133° Southeast 537 618 37,100  Level FlightAware ADS-B
Mon 08:43:42 AM 39.9990 21.6610 133° Southeast 538 619 37,100  Level FlightAware ADS-B
Mon 08:44:16 AM 39.9410 21.7430 133° Southeast 539 620 37,100  Level FlightAware ADS-B
Mon 08:44:56 AM 39.8730 21.8390 133° Southeast 539 620 37,100  Level FlightAware ADS-B
Mon 08:45:26 AM 39.8220 21.9120 132° Southeast 540 621 37,100  Level FlightAware ADS-B
Mon 08:46:06 AM 39.7560 22.0050 133° Southeast 540 621 37,100  Level FlightAware ADS-B
Mon 08:46:46 AM 39.6870 22.1020 133° Southeast 540 621 37,100  Level FlightAware ADS-B
Mon 08:47:28 AM 39.6190 22.1990 132° Southeast 541 623 37,100  Level FlightAware ADS-B
Mon 08:47:59 AM 39.5640 22.2760 133° Southeast 539 620 37,100  Level FlightAware ADS-B
Mon 08:48:39 AM 39.4970 22.3710 132° Southeast 538 619 37,100  Level FlightAware ADS-B
Mon 08:49:23 AM 39.4220 22.4760 133° Southeast 538 619 37,100  Level FlightAware ADS-B
Mon 08:49:53 AM 39.3710 22.5460 133° Southeast 537 618 37,100  Level FlightAware ADS-B
Mon 08:50:35 AM 39.3000 22.6460 133° Southeast 534 615 37,100  Level FlightAware ADS-B
Mon 08:51:15 AM 39.2340 22.7370 133° Southeast 532 612 37,100  Level FlightAware ADS-B
Mon 08:52:07 AM 39.1480 22.8580 132° Southeast 532 612 37,100  Level FlightAware ADS-B
Mon 08:52:39 AM 39.0950 22.9320 133° Southeast 532 612 37,100  Level FlightAware ADS-B
Mon 08:53:19 AM 39.0270 23.0270 133° Southeast 532 612 37,100  Level FlightAware ADS-B
Mon 08:53:51 AM 38.9720 23.1030 133° Southeast 534 615 37,100  Level FlightAware ADS-B
Mon 08:54:29 AM 38.9090 23.1900 133° Southeast 533 613 37,100  Level FlightAware ADS-B
Mon 08:55:01 AM 38.8570 23.2620 133° Southeast 533 613 37,100  Level FlightAware ADS-B
Mon 08:55:35 AM 38.7970 23.3420 134° Southeast 535 616 37,100  Level FlightAware ADS-B
Mon 08:56:17 AM 38.7250 23.4400 133° Southeast 536 617 37,100  Level FlightAware ADS-B
Mon 08:56:47 AM 38.6730 23.5090 134° Southeast 536 617 37,100  Level FlightAware ADS-B
Mon 08:57:27 AM 38.6060 23.5980 134° Southeast 536 617 37,100  Level FlightAware ADS-B
Mon 08:57:59 AM 38.5520 23.6720 133° Southeast 535 616 37,100  Level FlightAware ADS-B
Mon 08:58:39 AM 38.4830 23.7640 134° Southeast 534 615 37,100  Level FlightAware ADS-B
Mon 08:59:21 AM 38.4100 23.8610 134° Southeast 533 613 37,100  Level FlightAware ADS-B
Mon 08:59:59 AM 38.3470 23.9460 133° Southeast 532 612 37,100  Level FlightAware ADS-B
Mon 09:00:43 AM 38.2720 24.0460 134° Southeast 532 612 37,100  Level FlightAware ADS-B
Mon 09:01:23 AM 38.2040 24.1370 134° Southeast 533 613 37,100  Level FlightAware ADS-B
Mon 09:02:05 AM 38.1320 24.2320 134° Southeast 535 616 37,100  Level FlightAware ADS-B
Mon 09:02:36 AM 38.0790 24.3020 134° Southeast 536 617 37,100  Level FlightAware ADS-B
Mon 09:03:20 AM 38.0030 24.4030 134° Southeast 537 618 37,100  Level FlightAware ADS-B
Mon 09:04:00 AM 37.9330 24.4950 134° Southeast 536 617 37,100  Level FlightAware ADS-B
Mon 09:04:44 AM 37.8580 24.5940 134° Southeast 536 617 37,100  Level FlightAware ADS-B
Mon 09:05:24 AM 37.7890 24.6840 134° Southeast 536 617 37,100  Level FlightAware ADS-B
Mon 09:06:04 AM 37.7200 24.7740 134° Southeast 536 617 37,100  Level FlightAware ADS-B
Mon 09:06:48 AM 37.6430 24.8740 134° Southeast 534 615 37,100  Level FlightAware ADS-B
Mon 09:07:16 AM 37.5950 24.9360 134° Southeast 533 613 37,100  Level FlightAware ADS-B
Mon 09:07:58 AM 37.5250 25.0250 135° Southeast 532 612 37,100  Level FlightAware ADS-B
Mon 09:08:52 AM 37.4310 25.1440 135° Southeast 530 610 37,100  Level FlightAware ADS-B
Mon 09:09:30 AM 37.3640 25.2280 135° Southeast 530 610 37,100  Level FlightAware ADS-B
Mon 09:10:12 AM 37.2910 25.3210 135° Southeast 528 608 37,100  Level FlightAware ADS-B
Mon 09:10:52 AM 37.2230 25.4070 135° Southeast 526 605 37,100  Level FlightAware ADS-B
Mon 09:11:34 AM 37.1500 25.5010 134° Southeast 527 606 37,100  Level FlightAware ADS-B
Mon 09:12:18 AM 37.0750 25.5960 135° Southeast 526 605 37,100  Level FlightAware ADS-B
Mon 09:13:00 AM 37.0040 25.6870 134° Southeast 523 602 37,100  Level FlightAware ADS-B
Mon 09:13:42 AM 36.9330 25.7760 135° Southeast 523 602 37,100  Level FlightAware ADS-B
Mon 09:14:26 AM 36.8590 25.8700 135° Southeast 523 602 37,100 146 Level FlightAware ADS-B
Mon 09:15:04 AM 36.7950 25.9510 135° Southeast 518 596 37,300 659 Climbing FlightAware ADS-B
Mon 09:15:48 AM 36.7190 26.0460 135° Southeast 519 597 38,000 857 Climbing FlightAware ADS-B
Mon 09:16:28 AM 36.6510 26.1310 135° Southeast 522 601 38,500 667 Climbing FlightAware ADS-B
Mon 09:17:00 AM 36.5960 26.2010 134° Southeast 527 606 38,800 500 Climbing FlightAware ADS-B
Mon 09:17:40 AM 36.5360 26.2970 128° Southeast 546 628 39,100 225 Climbing FlightAware ADS-B
Mon 09:18:20 AM 36.4890 26.4100 117° Southeast 551 634 39,100  Level FlightAware ADS-B
Mon 09:19:08 AM 36.4350 26.5470 116° Southeast 550 633 39,100  Level FlightAware ADS-B
Mon 09:19:40 AM 36.3990 26.6380 116° Southeast 547 629 39,100  Level FlightAware ADS-B
Mon 09:20:20 AM 36.3540 26.7480 117° Southeast 545 627 39,100  Level FlightAware ADS-B
Mon 09:21:02 AM 36.3060 26.8650 117° Southeast 544 626 39,100  Level FlightAware ADS-B
Mon 09:21:44 AM 36.2580 26.9830 117° Southeast 543 625 39,100  Level FlightAware ADS-B
Mon 09:22:26 AM 36.2160 27.0840 117° Southeast 542 624 39,100  Level FlightAware ADS-B
Mon 09:23:17 AM 36.1670 27.2040 117° Southeast 542 624 39,100  Level FlightAware ADS-B
Mon 09:23:53 AM 36.1320 27.2890 117° Southeast 542 624 39,100  Level FlightAware ADS-B
Mon 09:24:29 AM 36.0970 27.3740 117° Southeast 542 624 39,100  Level FlightAware ADS-B
Mon 09:25:05 AM 36.0620 27.4580 117° Southeast 542 624 39,100  Level FlightAware ADS-B
Mon 09:25:42 AM 36.0270 27.5450 116° Southeast 542 624 39,100  Level FlightAware ADS-B
Mon 09:26:43 AM 35.9680 27.6880 117° Southeast 542 624 39,100  Level FlightAware ADS-B
Mon 09:27:29 AM 35.8410 27.9150 125° Southeast 535 616 39,100  Level FlightAware ADS-B
Mon 09:28:09 AM 35.7840 28.0140 125° Southeast 533 613 39,100  Level FlightAware ADS-B
Mon 09:28:49 AM 35.7250 28.1150 126° Southeast 529 609 39,100  Level FlightAware ADS-B
Mon 09:29:33 AM 35.6620 28.2220 126° Southeast 530 610 39,100  Level FlightAware ADS-B
Mon 09:30:03 AM 35.6200 28.2940 126° Southeast 530 610 39,100  Level FlightAware ADS-B
Mon 09:30:41 AM 35.5650 28.3860 126° Southeast 530 610 39,100  Level FlightAware ADS-B
Mon 09:31:23 AM 35.5040 28.4900 126° Southeast 530 610 39,100  Level FlightAware ADS-B
Mon 09:31:55 AM 35.4580 28.5670 126° Southeast 530 610 39,100  Level FlightAware ADS-B
Mon 09:32:27 AM 35.4110 28.6450 126° Southeast 531 611 39,100  Level FlightAware ADS-B
Mon 09:33:20 AM 35.3360 28.7710 126° Southeast 531 611 39,100  Level FlightAware ADS-B
Mon 09:34:01 AM 35.2750 28.8740 126° Southeast 531 611 39,100  Level FlightAware ADS-B
Mon 09:34:41 AM 35.2160 28.9720 126° Southeast 531 611 39,100  Level FlightAware ADS-B
Mon 09:35:23 AM 35.1560 29.0720 126° Southeast 531 611 39,100  Level FlightAware ADS-B
Mon 09:36:28 AM 35.0620 29.2270 127° Southeast 526 605 39,100  Level FlightAware ADS-B
Mon 09:37:07 AM 35.0160 29.3080 125° Southeast 526 605 39,100  Level FlightAware ADS-B
Mon 09:37:48 AM 34.9550 29.4080 127° Southeast 526 605 39,100  Level FlightAware ADS-B
Mon 09:38:24 AM 34.9120 29.4820 125° Southeast 526 605 39,100  Level FlightAware ADS-B
Mon 09:38:59 AM 34.8430 29.5870 129° Southeast 517 595 39,100  Level FlightAware ADS-B
Mon 09:39:44 AM 34.7770 29.6950 127° Southeast 521 600 39,100  Level FlightAware ADS-B
Mon 09:40:25 AM 34.7200 29.7890 126° Southeast 515 593 39,100  Level FlightAware ADS-B
Mon 09:41:05 AM 34.6640 29.8790 127° Southeast 514 592 39,100  Level FlightAware ADS-B
Mon 09:42:11 AM 34.5710 30.0340 126° Southeast 514 592 39,100  Level FlightAware ADS-B
Mon 09:42:51 AM 34.5200 30.1340 122° Southeast 521 600 39,100  Level FlightAware ADS-B
Mon 09:44:01 AM 34.4320 30.3180 120° Southeast 521 600 39,100  Level FlightAware ADS-B
Mon 09:44:56 AM 34.3650 30.4540 121° Southeast 520 598 39,100  Level FlightAware ADS-B
Mon 09:45:26 AM 34.3270 30.5330 120° Southeast 520 598 39,100  Level FlightAware ADS-B
Mon 09:46:11 AM 34.2720 30.6470 120° Southeast 520 598 39,100  Level FlightAware ADS-B
Mon 09:47:01 AM 34.2120 30.7710 120° Southeast 519 597 39,100  Level FlightAware ADS-B
Mon 09:47:31 AM 34.1740 30.8480 121° Southeast 518 596 39,100  Level FlightAware ADS-B
Mon 09:48:12 AM 34.1250 30.9500 120° Southeast 518 596 39,100  Level FlightAware ADS-B
Mon 09:48:54 AM 34.0760 31.0490 121° Southeast 517 595 39,100  Level FlightAware ADS-B
Mon 09:49:37 AM 34.0210 31.1640 120° Southeast 517 595 39,100  Level FlightAware ADS-B
Mon 09:50:17 AM 33.9720 31.2630 121° Southeast 518 596 39,100  Level FlightAware ADS-B
Mon 09:50:58 AM 33.9210 31.3660 121° Southeast 518 596 39,100  Level FlightAware ADS-B
Mon 09:51:33 AM 33.8780 31.4550 120° Southeast 517 595 39,100  Level FlightAware ADS-B
Mon 09:52:04 AM 33.8410 31.5300 121° Southeast 518 596 39,100  Level FlightAware ADS-B
Mon 09:52:49 AM 33.7850 31.6440 121° Southeast 516 594 39,100  Level FlightAware ADS-B
Mon 09:53:25 AM 33.7420 31.7330 120° Southeast 516 594 39,100  Level FlightAware ADS-B
Mon 09:54:11 AM 33.6860 31.8460 121° Southeast 514 592 39,100  Level FlightAware ADS-B
Mon 09:54:51 AM 33.6350 31.9480 121° Southeast 515 593 39,100  Level FlightAware ADS-B
Mon 09:55:20 AM 33.5990 32.0190 121° Southeast 515 593 39,100  Level FlightAware ADS-B
Mon 09:56:01 AM 33.5500 32.1180 121° Southeast 514 592 39,100  Level FlightAware ADS-B
Mon 09:56:46 AM 33.4970 32.2230 121° Southeast 513 590 39,100  Level FlightAware ADS-B
Mon 09:57:26 AM 33.4440 32.3270 121° Southeast 512 589 39,100 -568 Level FlightAware ADS-B
Mon 09:58:21 AM 33.3800 32.4540 121° Southeast 512 589 38,200 -1,037 Descending FlightAware ADS-B
Mon 09:58:47 AM 33.3480 32.5170 121° Southeast 519 597 37,700 -811 Descending FlightAware ADS-B
Mon 10:00:12 AM 33.2440 32.7220 121° Southeast 523 602 36,700 -1,526 Descending FlightAware ADS-B
Mon 10:00:41 AM 33.2020 32.8030 122° Southeast 517 595 34,800 -3,857 Descending FlightAware ADS-B
Mon 10:01:36 AM 33.1320 32.9380 122° Southeast 531 611 31,300 -3,419 Descending FlightAware ADS-B
Mon 10:02:07 AM 33.0920 33.0150 122° Southeast 522 601 29,900 -2,457 Descending FlightAware ADS-B
Mon 10:03:21 AM 33.0010 33.1900 122° Southeast 493 567 27,000 -2,315 Descending FlightAware ADS-B
Mon 10:04:14 AM 32.9370 33.3130 122° Southeast 467 537 25,000 -1,333 Descending FlightAware ADS-B
Mon 10:04:51 AM 32.9020 33.3820 121° Southeast 467 537 25,000 -1,310 Level FlightAware ADS-B
Mon 10:05:41 AM 32.8390 33.4770 128° Southeast 436 502 23,100 -2,688 Descending FlightAware ADS-B
Mon 10:06:27 AM 32.7800 33.5750 126° Southeast 428 493 20,700 -2,483 Descending FlightAware ADS-B
Mon 10:07:08 AM 32.7330 33.6540 125° Southeast 415 478 19,500 -1,704 Descending FlightAware ADS-B
Mon 10:07:48 AM 32.6880 33.7280 126° Southeast 412 474 18,400 -1,692 Descending FlightAware ADS-B
Mon 10:08:26 AM 32.6460 33.7980 125° Southeast 404 465 17,300 -1,663 Descending FlightAware ADS-B
Mon 10:09:11 AM 32.5980 33.8770 126° Southeast 398 458 16,100 -1,618 Descending FlightAware ADS-B
Mon 10:09:55 AM 32.5510 33.9530 126° Southeast 384 442 14,900 -1,586 Descending FlightAware ADS-B
Mon 10:10:38 AM 32.5060 34.0260 126° Southeast 381 438 13,800 -1,482 Descending FlightAware ADS-B
Mon 10:11:20 AM 32.4640 34.0950 126° Southeast 374 430 12,800 -1,390 Descending FlightAware ADS-B
Mon 10:12:00 AM 32.4220 34.1630 126° Southeast 355 409 11,900 -1,735 Descending FlightAware ADS-B
Mon 10:12:43 AM 32.3800 34.2290 127° Southeast 356 410 10,400 -1,271 Descending FlightAware ADS-B
Mon 10:13:25 AM 32.3400 34.2920 127° Southeast 322 371 10,100 -333 Descending FlightAware ADS-B
Mon 10:13:55 AM 32.3160 34.3320 125° Southeast 303 349 10,000 -828 Descending FlightAware ADS-B
Mon 10:14:23 AM 32.2910 34.3700 128° Southeast 302 348 9,300 -771 Descending FlightAware ADS-B
Mon 10:15:05 AM 32.2610 34.4180 126° Southeast 303 349 9,100 -222 Descending FlightAware ADS-B
Mon 10:15:17 AM 32.2530 34.4320 124° Southeast 303 349 9,100  Level FlightAware ADS-B
Mon 10:15:39 AM 32.2380 34.4570 125° Southeast 303 349 9,100  Level FlightAware ADS-B
Mon 10:16:03 AM 32.2210 34.4840 127° Southeast 303 349 9,100 -1,472 Level FlightAware ADS-B
Mon 10:17:29 AM 32.1520 34.6180 121° Southeast 5,500 -1,727 Descending FlightAware ADS-B
Mon 10:17:57 AM 32.1320 34.6540 123° Southeast 5,200 -453 Descending FlightAware ADS-B
Mon 10:18:22 AM 32.1150 34.6850 123° Southeast 281 323 5,100 -81 Descending FlightAware ADS-B
Mon 10:19:11 AM 32.0810 34.7450 124° Southeast 281 323 5,100  Level FlightAware ADS-B
Mon 10:19:52 AM 32.0850 34.7380 304° West 239 275 5,100  Level FlightAware ADS-B
Mon 10:20:18 AM 32.0850 34.7370 270° West 238 274 5,100 -316 Level FlightAware ADS-B
Mon 10:20:49 AM 32.0800 34.7340 207° Southwest 236 272 4,800 -381 Descending FlightAware ADS-B
Mon 10:21:21 AM 32.0810 34.7330 320° Northwest 219 252 4,700 -1,418 Descending FlightAware ADS-B
Mon 10:21:44 AM 31.9710 34.8830 131° Southeast 221 254 3,500 -1,371 Descending FlightAware ADS-B
Mon 10:22:31 AM 31.9660 34.9350 96° East 224 258 3,100 -511 Descending FlightAware ADS-B
Mon 10:25:00 AM 32.0095 34.8769 311° West  Level Estimated
Mon 10:26:00 AM 32.0095 34.8769 270° West  Level Estimated

Login

Don't have an account? Register now (free) for customized features, flight alerts, and more!